createdAt,value
2022-12-29T00:00:48.639Z,11.50
2022-12-29T00:05:56.569Z,11.50
2022-12-29T00:10:58.323Z,11.60
2022-12-29T00:16:00.199Z,11.60
2022-12-29T00:21:20.468Z,11.50
2022-12-29T00:26:41.017Z,11.50
2022-12-29T00:32:01.569Z,11.70
2022-12-29T00:37:03.383Z,11.60
2022-12-29T00:42:25.680Z,11.70
2022-12-29T00:47:27.798Z,11.70
2022-12-29T00:52:29.694Z,11.70
2022-12-29T00:57:31.442Z,11.80
2022-12-29T01:02:33.415Z,11.70
2022-12-29T01:07:35.539Z,11.70
2022-12-29T01:12:43.135Z,11.70
2022-12-29T01:17:44.921Z,11.60
2022-12-29T01:22:46.901Z,11.70
2022-12-29T01:27:48.748Z,11.70
2022-12-29T01:32:50.523Z,11.70
2022-12-29T01:37:52.371Z,11.50
2022-12-29T01:42:54.240Z,11.40
2022-12-29T01:48:03.021Z,11.20
2022-12-29T01:53:16.523Z,11.20
2022-12-29T01:58:23.408Z,11.10
2022-12-29T02:03:27.673Z,11.00
2022-12-29T02:08:30.622Z,10.90
2022-12-29T02:13:32.717Z,10.90
2022-12-29T02:18:51.291Z,10.90
2022-12-29T02:23:59.070Z,10.80
2022-12-29T02:29:24.633Z,10.80
2022-12-29T02:34:32.402Z,10.80
2022-12-29T02:40:08.385Z,10.70
2022-12-29T02:45:21.712Z,10.70
2022-12-29T02:50:45.073Z,10.60
2022-12-29T02:55:51.167Z,10.50
2022-12-29T03:01:11.694Z,10.40
2022-12-29T03:06:33.478Z,10.40
2022-12-29T03:12:03.939Z,10.30
2022-12-29T03:17:15.637Z,10.00
2022-12-29T03:22:32.384Z,10.10
2022-12-29T03:27:37.993Z,9.90
2022-12-29T03:32:46.224Z,9.90
2022-12-29T03:38:00.884Z,9.90
2022-12-29T03:43:04.352Z,9.90
2022-12-29T03:48:06.259Z,10.00
2022-12-29T03:53:08.224Z,10.00
2022-12-29T03:58:10.080Z,10.10
2022-12-29T04:03:11.933Z,10.20
2022-12-29T04:08:13.793Z,10.30
2022-12-29T04:13:16.144Z,10.50
2022-12-29T04:18:20.007Z,10.60
2022-12-29T04:23:21.828Z,10.50
2022-12-29T04:28:23.924Z,10.50
2022-12-29T04:33:26.400Z,10.30
2022-12-29T04:38:28.234Z,10.20
2022-12-29T04:43:30.164Z,10.10
2022-12-29T04:48:31.961Z,10.10
2022-12-29T04:53:33.929Z,10.10
2022-12-29T04:58:36.764Z,10.20
2022-12-29T05:03:38.703Z,10.40
2022-12-29T05:08:40.558Z,10.40
2022-12-29T05:13:42.315Z,10.50
2022-12-29T05:18:44.164Z,10.60
2022-12-29T05:23:45.940Z,10.60
2022-12-29T05:28:47.706Z,10.60
2022-12-29T05:33:49.485Z,10.60
2022-12-29T05:38:51.402Z,10.60
2022-12-29T05:43:53.230Z,10.60
2022-12-29T05:48:54.972Z,10.60
2022-12-29T05:53:56.876Z,10.70
2022-12-29T05:58:58.700Z,10.60
2022-12-29T06:04:00.778Z,10.70
2022-12-29T06:09:02.653Z,10.70
2022-12-29T06:14:04.428Z,10.60
2022-12-29T06:19:06.185Z,10.60
2022-12-29T06:24:08.142Z,10.60
2022-12-29T06:29:10.231Z,10.50
2022-12-29T06:34:13.063Z,10.60
2022-12-29T06:39:15.046Z,10.80
2022-12-29T06:44:16.865Z,10.60
2022-12-29T06:49:18.726Z,10.70
2022-12-29T06:54:20.472Z,10.70
2022-12-29T06:59:22.283Z,10.70
2022-12-29T07:04:24.121Z,10.60
2022-12-29T07:09:26.264Z,10.90
2022-12-29T07:14:28.329Z,10.70
2022-12-29T07:19:30.093Z,10.80
2022-12-29T07:24:31.920Z,10.70
2022-12-29T07:29:33.811Z,10.70
2022-12-29T07:34:35.627Z,10.70
2022-12-29T07:39:37.405Z,10.70
2022-12-29T07:44:39.373Z,10.80
2022-12-29T07:49:41.162Z,10.70
2022-12-29T07:54:42.979Z,10.60
2022-12-29T07:59:44.762Z,10.80
2022-12-29T08:04:46.649Z,10.70
2022-12-29T08:09:48.441Z,10.60
2022-12-29T08:14:50.452Z,10.60
2022-12-29T08:19:52.214Z,10.60
2022-12-29T08:24:53.939Z,10.60
2022-12-29T08:29:55.735Z,10.60
2022-12-29T08:34:57.620Z,10.60
2022-12-29T08:40:01.028Z,10.60
2022-12-29T08:45:03.441Z,10.60
2022-12-29T08:50:05.735Z,10.60
2022-12-29T08:55:07.820Z,10.50
2022-12-29T09:00:10.381Z,10.60
2022-12-29T09:05:12.295Z,10.60
2022-12-29T09:10:14.204Z,10.60
2022-12-29T09:15:18.052Z,10.70
2022-12-29T09:20:20.492Z,10.60
2022-12-29T09:25:26.580Z,10.60
2022-12-29T09:30:28.350Z,10.60
2022-12-29T09:35:30.317Z,10.70
2022-12-29T09:40:34.325Z,10.90
2022-12-29T09:45:46.527Z,10.90
2022-12-29T09:51:00.064Z,10.90
2022-12-29T09:56:06.834Z,10.90
2022-12-29T10:01:32.066Z,10.90
2022-12-29T10:12:31.779Z,11.20
2022-12-29T10:18:09.640Z,11.20
2022-12-29T10:23:17.099Z,11.10
2022-12-29T10:28:21.594Z,11.00
2022-12-29T10:33:30.882Z,11.00
2022-12-29T10:38:43.498Z,10.90
2022-12-29T10:43:53.956Z,10.90
2022-12-29T10:48:55.758Z,10.90
2022-12-29T10:54:03.902Z,11.00
2022-12-29T10:59:26.441Z,11.00
2022-12-29T11:04:45.402Z,11.10
2022-12-29T11:09:47.533Z,11.00
2022-12-29T11:15:21.992Z,11.00
2022-12-29T11:20:39.529Z,11.10
2022-12-29T11:25:43.124Z,11.10
2022-12-29T11:30:45.162Z,11.20
2022-12-29T11:35:47.053Z,11.20
2022-12-29T11:40:49.784Z,11.20
2022-12-29T11:45:54.784Z,11.30
2022-12-29T11:51:00.686Z,11.30
2022-12-29T11:56:07.048Z,11.10
2022-12-29T12:01:38.062Z,11.00
2022-12-29T12:06:48.233Z,10.90
2022-12-29T12:11:54.979Z,10.90
2022-12-29T12:17:05.367Z,10.90
2022-12-29T12:22:16.987Z,10.80
2022-12-29T12:27:35.917Z,10.80
2022-12-29T12:32:49.446Z,10.70
2022-12-29T12:38:17.950Z,10.80
2022-12-29T12:43:45.225Z,10.70
2022-12-29T12:49:14.869Z,10.70
2022-12-29T12:54:44.520Z,10.60
2022-12-29T12:59:59.291Z,10.60
2022-12-29T13:05:28.993Z,10.80
2022-12-29T13:10:54.418Z,10.80
2022-12-29T13:16:14.906Z,10.80
2022-12-29T13:21:48.289Z,10.90
2022-12-29T13:26:59.924Z,10.90
2022-12-29T13:32:13.705Z,10.80
2022-12-29T13:37:19.390Z,10.90
2022-12-29T13:42:22.244Z,10.90
2022-12-29T13:47:42.440Z,10.80
2022-12-29T13:53:11.654Z,10.70
2022-12-29T13:58:24.138Z,10.60
2022-12-29T14:03:49.037Z,10.60
2022-12-29T14:09:03.337Z,11.10
2022-12-29T14:14:20.060Z,12.10
2022-12-29T14:19:29.823Z,11.80
2022-12-29T14:24:37.343Z,11.20
2022-12-29T14:29:44.047Z,10.60
2022-12-29T14:34:51.821Z,10.40
2022-12-29T14:40:20.320Z,10.30
2022-12-29T14:45:21.985Z,10.30
2022-12-29T14:50:31.549Z,10.30
2022-12-29T14:55:47.758Z,10.50
2022-12-29T15:00:50.364Z,10.50
2022-12-29T15:05:57.610Z,10.40
2022-12-29T15:11:13.103Z,10.40
2022-12-29T15:16:30.286Z,10.40
2022-12-29T15:21:37.374Z,10.40
2022-12-29T15:26:46.483Z,10.40
2022-12-29T15:31:49.821Z,10.30
2022-12-29T15:36:52.367Z,9.60
2022-12-29T15:42:02.368Z,9.00
2022-12-29T15:47:15.487Z,8.70
2022-12-29T15:52:26.549Z,8.60
2022-12-29T15:57:31.203Z,8.50
2022-12-29T16:02:34.880Z,8.50
2022-12-29T16:07:41.624Z,8.50
2022-12-29T16:12:43.936Z,8.50
2022-12-29T16:17:53.809Z,8.50
2022-12-29T16:23:00.974Z,8.60
2022-12-29T16:28:15.398Z,8.50
2022-12-29T16:33:38.548Z,8.50
2022-12-29T16:38:43.926Z,8.50
2022-12-29T16:43:45.724Z,8.40
2022-12-29T16:48:54.739Z,8.40
2022-12-29T16:53:57.453Z,8.40
2022-12-29T16:59:06.918Z,8.50
2022-12-29T17:04:14.214Z,8.40
2022-12-29T17:09:24.723Z,8.40
2022-12-29T17:14:58.696Z,8.40
2022-12-29T17:20:07.141Z,8.40
2022-12-29T17:25:14.414Z,8.30
2022-12-29T17:30:18.840Z,8.40
2022-12-29T17:35:22.428Z,8.40
2022-12-29T17:40:29.731Z,8.50
2022-12-29T17:45:32.774Z,8.50
2022-12-29T17:50:34.596Z,8.60
2022-12-29T17:55:38.394Z,8.70
2022-12-29T18:00:40.793Z,8.70
2022-12-29T18:05:42.793Z,8.60
2022-12-29T18:10:44.778Z,8.50
2022-12-29T18:15:47.253Z,8.50
2022-12-29T18:20:51.610Z,8.50
2022-12-29T18:25:59.177Z,8.50
2022-12-29T18:31:01.736Z,8.40
2022-12-29T18:36:05.828Z,8.30
2022-12-29T18:41:20.660Z,8.20
2022-12-29T18:46:23.883Z,8.20
2022-12-29T18:51:26.201Z,8.30
2022-12-29T18:56:28.043Z,8.20
2022-12-29T19:01:31.106Z,8.30
2022-12-29T19:06:33.068Z,8.30
2022-12-29T19:11:35.523Z,8.40
2022-12-29T19:16:37.465Z,8.30
2022-12-29T19:21:39.319Z,8.40
2022-12-29T19:26:41.458Z,8.50
2022-12-29T19:31:43.441Z,8.40
2022-12-29T19:36:46.046Z,8.40
2022-12-29T19:41:47.918Z,8.30
2022-12-29T19:46:49.922Z,8.30
2022-12-29T19:51:51.714Z,8.20
2022-12-29T19:56:53.514Z,8.20
2022-12-29T20:01:55.539Z,8.30
2022-12-29T20:06:57.456Z,8.20
2022-12-29T20:11:59.242Z,8.30
2022-12-29T20:17:11.249Z,8.20
2022-12-29T20:22:14.142Z,8.20
2022-12-29T20:27:16.286Z,8.20
2022-12-29T20:32:25.318Z,8.20
2022-12-29T20:37:27.462Z,8.10
2022-12-29T20:42:29.329Z,8.20
2022-12-29T20:47:31.551Z,8.20
2022-12-29T20:52:33.369Z,8.20
2022-12-29T20:57:56.995Z,8.10
2022-12-29T21:02:58.544Z,8.20
2022-12-29T21:08:00.418Z,8.10
2022-12-29T21:13:02.210Z,8.00
2022-12-29T21:18:04.044Z,8.10
2022-12-29T21:23:06.709Z,8.10
2022-12-29T21:28:12.193Z,8.10
2022-12-29T21:33:14.077Z,8.00
2022-12-29T21:38:15.859Z,7.90
2022-12-29T21:43:17.618Z,7.90
2022-12-29T21:48:23.681Z,7.90
2022-12-29T21:53:38.212Z,7.80
2022-12-29T21:59:00.385Z,7.80
2022-12-29T22:04:21.009Z,7.90
2022-12-29T22:09:43.823Z,7.80
2022-12-29T22:14:46.024Z,7.70
2022-12-29T22:19:47.822Z,7.70
2022-12-29T22:24:49.732Z,7.70
2022-12-29T22:29:51.712Z,7.60
2022-12-29T22:34:53.515Z,7.60
2022-12-29T22:39:55.501Z,7.50
2022-12-29T22:44:57.275Z,7.50
2022-12-29T22:49:59.021Z,7.50
2022-12-29T22:55:06.400Z,7.50
2022-12-29T23:00:09.769Z,7.40
2022-12-29T23:05:14.875Z,7.40
2022-12-29T23:10:17.107Z,7.30
2022-12-29T23:15:18.878Z,7.40
2022-12-29T23:20:20.658Z,7.40
2022-12-29T23:25:22.417Z,7.40
2022-12-29T23:30:24.204Z,7.30
2022-12-29T23:35:26.089Z,7.30
2022-12-29T23:40:27.865Z,7.40
2022-12-29T23:45:29.628Z,7.30
2022-12-29T23:50:32.164Z,7.20
2022-12-29T23:55:34.066Z,7.20
